Time;durP1;ratioP1;P1;durP2;ratioP2;P2;SDS_P1;SDS_P2;PMS_P1;PMS_P2;Temp;Humidity;BMP_temperature;BMP_pressure;BME280_temperature;BME280_humidity;BME280_pressure;Samples;Min_cycle;Max_cycle;Signal;HPM_P1;HPM_P2
2023/02/06 00:00:53;;;;;;;13.17;6.00;;;-0.10;99.90;;;;;;6274931;23;20403;-60
2023/02/06 00:03:20;;;;;;;8.03;5.33;;;-0.20;99.90;;;;;;6274638;23;20410;-54
2023/02/06 00:05:56;;;;;;;7.63;3.90;;;-0.20;99.90;;;;;;6274460;23;20446;-53
2023/02/06 00:08:23;;;;;;;8.87;5.60;;;-0.30;99.90;;;;;;6275177;23;20429;-58
2023/02/06 00:10:50;;;;;;;8.43;4.27;;;-0.30;99.90;;;;;;6275505;23;20387;-55
2023/02/06 00:13:17;;;;;;;6.57;4.93;;;-0.40;99.90;;;;;;6274871;23;20433;-57
2023/02/06 00:15:44;;;;;;;5.60;4.97;;;-0.50;99.90;;;;;;6275429;23;20403;-58
2023/02/06 00:18:11;;;;;;;15.33;7.40;;;-0.50;99.90;;;;;;6275227;23;20423;-59
2023/02/06 00:20:38;;;;;;;9.80;5.23;;;-0.50;99.90;;;;;;6274923;23;20379;-55
2023/02/06 00:23:07;;;;;;;8.60;5.73;;;-0.50;99.90;;;;;;6274999;23;20414;-51
2023/02/06 00:25:33;;;;;;;6.63;4.50;;;-0.50;99.90;;;;;;6275072;23;20410;-60
2023/02/06 00:28:00;;;;;;;12.60;5.63;;;-0.50;99.90;;;;;;6274708;23;20702;-55
2023/02/06 00:30:27;;;;;;;7.07;5.43;;;-0.40;99.90;;;;;;6273885;23;20414;-55
2023/02/06 00:32:54;;;;;;;5.67;4.00;;;-0.50;99.90;;;;;;6273741;23;20410;-55
2023/02/06 00:35:21;;;;;;;12.03;4.87;;;-0.50;99.90;;;;;;6273570;23;20409;-58
2023/02/06 00:37:48;;;;;;;5.33;3.90;;;-0.60;99.90;;;;;;6274153;23;20394;-59
2023/02/06 00:40:16;;;;;;;6.67;4.50;;;-0.60;99.90;;;;;;6273714;23;20409;-57
2023/02/06 00:42:43;;;;;;;6.87;4.30;;;-0.60;99.90;;;;;;6273723;23;20380;-54
2023/02/06 00:45:11;;;;;;;5.10;3.70;;;-0.70;99.90;;;;;;6273288;23;20450;-55
2023/02/06 00:47:37;;;;;;;7.33;4.20;;;-0.70;99.90;;;;;;6273612;23;20409;-58
2023/02/06 00:50:05;;;;;;;6.80;5.10;;;-0.70;99.90;;;;;;6274123;23;20426;-56
2023/02/06 00:52:32;;;;;;;7.30;5.53;;;-0.70;99.90;;;;;;6273786;23;20399;-59
2023/02/06 00:54:59;;;;;;;7.80;3.97;;;-0.80;99.90;;;;;;6273712;23;20422;-60
2023/02/06 00:57:27;;;;;;;5.57;4.10;;;-0.80;99.90;;;;;;6273992;23;20402;-56
2023/02/06 00:59:54;;;;;;;5.40;4.50;;;-0.80;99.90;;;;;;6273260;23;20423;-55
2023/02/06 01:02:21;;;;;;;12.43;6.23;;;-0.80;99.90;;;;;;6274200;22;20399;-57
2023/02/06 01:04:51;;;;;;;11.20;5.20;;;-0.90;99.90;;;;;;6273299;23;20464;-58
2023/02/06 01:07:17;;;;;;;5.20;3.70;;;-0.50;99.90;;;;;;6274183;23;20449;-53
2023/02/06 01:09:44;;;;;;;6.57;4.23;;;-0.90;99.90;;;;;;6274575;23;20423;-55
2023/02/06 01:12:11;;;;;;;8.30;4.30;;;-0.90;99.90;;;;;;6274244;23;20399;-57
2023/02/06 01:14:39;;;;;;;5.97;4.37;;;-0.90;99.90;;;;;;6274508;23;20427;-58
2023/02/06 01:17:06;;;;;;;7.30;4.20;;;-0.90;99.90;;;;;;6275028;23;20392;-60
2023/02/06 01:19:33;;;;;;;9.03;4.70;;;-0.90;99.90;;;;;;6274533;23;20438;-56
2023/02/06 01:22:00;;;;;;;7.77;3.83;;;-0.90;99.90;;;;;;6275373;23;20387;-59
2023/02/06 01:24:27;;;;;;;6.03;3.90;;;-1.00;99.90;;;;;;6275350;23;20406;-56
2023/02/06 01:26:53;;;;;;;6.30;3.13;;;-1.00;99.90;;;;;;6274281;23;20437;-56
2023/02/06 01:29:20;;;;;;;4.03;2.53;;;-1.00;99.90;;;;;;6274249;23;20383;-55
2023/02/06 01:31:49;;;;;;;5.83;3.87;;;-1.00;99.90;;;;;;6273883;23;20374;-58
2023/02/06 01:34:16;;;;;;;5.57;3.10;;;-1.00;99.90;;;;;;6274110;23;20395;-58
2023/02/06 01:36:42;;;;;;;6.47;3.20;;;-1.00;99.90;;;;;;6274063;23;20388;-54
2023/02/06 01:39:10;;;;;;;6.23;3.30;;;-1.00;99.90;;;;;;6273841;23;20399;-57
2023/02/06 01:41:37;;;;;;;7.53;3.90;;;-1.10;99.90;;;;;;6272990;23;20395;-58
2023/02/06 01:44:11;;;;;;;7.70;3.77;;;-1.10;99.90;;;;;;6272848;23;20388;-59
2023/02/06 01:46:37;;;;;;;6.23;3.87;;;-1.10;99.90;;;;;;6272523;23;20443;-58
2023/02/06 01:49:07;;;;;;;7.67;3.73;;;-1.00;99.90;;;;;;6273511;23;20387;-59
2023/02/06 01:51:34;;;;;;;8.23;3.67;;;-1.00;99.90;;;;;;6273776;23;20387;-58
2023/02/06 01:54:04;;;;;;;6.50;4.67;;;-1.00;99.90;;;;;;6273227;23;20414;-58
2023/02/06 01:56:34;;;;;;;6.93;4.63;;;-1.00;99.90;;;;;;6272531;23;20426;-58
2023/02/06 01:59:04;;;;;;;5.40;2.90;;;-1.00;99.90;;;;;;6272882;23;20390;-57
2023/02/06 02:01:34;;;;;;;6.80;3.60;;;-1.00;99.90;;;;;;6273495;23;20441;-54
2023/02/06 02:04:04;;;;;;;8.60;5.23;;;-1.00;99.90;;;;;;6273260;23;20387;-59
2023/02/06 02:06:33;;;;;;;7.70;4.57;;;-1.00;99.90;;;;;;6273449;23;20442;-57
2023/02/06 02:09:01;;;;;;;11.13;5.03;;;-1.00;99.90;;;;;;6273512;23;20389;-56
2023/02/06 02:11:31;;;;;;;6.03;4.33;;;-1.00;99.90;;;;;;6273414;23;20427;-54
2023/02/06 02:13:59;;;;;;;7.00;4.97;;;-0.90;99.90;;;;;;6273414;23;20399;-55
2023/02/06 02:16:35;;;;;;;4.73;4.33;;;-1.00;99.90;;;;;;6273549;23;20387;-54
2023/02/06 02:19:27;;;;;;;6.50;4.20;;;-1.00;99.90;;;;;;6273311;23;20371;-59
2023/02/06 02:22:29;;;;;;;5.90;4.20;;;-1.00;99.90;;;;;;6272942;23;20387;-56
2023/02/06 02:25:31;;;;;;;9.43;5.00;;;-1.00;99.90;;;;;;6273735;23;20379;-55
2023/02/06 02:28:25;;;;;;;9.50;5.27;;;-1.00;99.90;;;;;;6216329;23;20399;-55
2023/02/06 02:31:14;;;;;;;7.43;4.50;;;-1.00;99.90;;;;;;6272959;23;20391;-57
2023/02/06 02:34:07;;;;;;;6.83;4.57;;;-1.00;99.90;;;;;;6267271;22;20442;-59
2023/02/06 02:36:42;;;;;;;6.20;3.67;;;-1.00;99.90;;;;;;6272624;23;20395;-56
2023/02/06 02:39:17;;;;;;;6.83;3.80;;;-1.00;99.90;;;;;;6273117;23;20421;-59
2023/02/06 02:41:49;;;;;;;9.53;6.07;;;-1.00;99.90;;;;;;6273313;23;20410;-61
2023/02/06 02:44:38;;;;;;;9.40;4.40;;;-1.00;99.90;;;;;;6273069;23;20411;-58
2023/02/06 02:47:08;;;;;;;8.87;5.87;;;-1.10;99.90;;;;;;6273445;23;20403;-60
2023/02/06 02:49:38;;;;;;;5.90;3.70;;;-1.20;99.90;;;;;;6272603;23;20399;-57
2023/02/06 02:52:06;;;;;;;7.00;4.80;;;-1.20;99.90;;;;;;6272642;23;20375;-51
2023/02/06 02:54:33;;;;;;;9.33;4.77;;;-1.10;99.90;;;;;;6273217;23;20399;-57
2023/02/06 02:57:06;;;;;;;9.10;4.30;;;-1.20;99.90;;;;;;6272771;23;20862;-52
2023/02/06 02:59:39;;;;;;;11.10;4.30;;;-1.20;99.90;;;;;;6272872;23;20391;-54
2023/02/06 03:02:11;;;;;;;5.13;4.53;;;-1.20;99.90;;;;;;6273071;23;20410;-55
2023/02/06 03:04:42;;;;;;;7.30;5.57;;;-1.10;99.90;;;;;;6273101;23;20384;-54
2023/02/06 03:07:22;;;;;;;8.00;4.87;;;-1.20;99.90;;;;;;6273003;23;20450;-57
2023/02/06 03:09:59;;;;;;;7.30;5.43;;;-1.20;99.90;;;;;;6273468;23;20394;-57
2023/02/06 03:12:37;;;;;;;7.47;5.13;;;-1.10;99.90;;;;;;6272853;23;20383;-56
2023/02/06 03:15:10;;;;;;;4.90;3.50;;;-1.10;99.90;;;;;;6273002;23;20398;-56
2023/02/06 03:17:41;;;;;;;8.60;4.27;;;-1.10;99.90;;;;;;6272860;23;20384;-59
2023/02/06 03:20:10;;;;;;;6.60;5.03;;;-1.10;99.90;;;;;;6273495;23;20368;-55
2023/02/06 03:22:42;;;;;;;6.23;3.77;;;-1.10;99.90;;;;;;6273049;23;20399;-56
2023/02/06 03:25:13;;;;;;;7.17;4.60;;;-1.10;99.90;;;;;;6272831;23;20411;-60
2023/02/06 03:27:41;;;;;;;6.50;5.03;;;-1.00;99.90;;;;;;6272889;23;20413;-56
2023/02/06 03:30:12;;;;;;;8.37;4.33;;;-1.00;99.90;;;;;;6273191;23;20419;-59
2023/02/06 03:32:42;;;;;;;11.20;4.27;;;-1.00;99.90;;;;;;6272938;23;20374;-59
2023/02/06 03:35:15;;;;;;;8.73;5.17;;;-1.00;99.90;;;;;;6272170;23;20430;-54
2023/02/06 03:37:44;;;;;;;6.70;5.60;;;-1.00;99.90;;;;;;6272613;23;20379;-58
2023/02/06 03:40:12;;;;;;;10.33;5.37;;;-1.00;99.90;;;;;;6272406;23;20386;-58
2023/02/06 03:42:41;;;;;;;7.30;4.57;;;-0.90;99.90;;;;;;6271982;23;20371;-56
2023/02/06 03:45:13;;;;;;;6.83;4.43;;;-0.90;99.90;;;;;;6272591;23;20407;-58
2023/02/06 03:47:42;;;;;;;6.33;4.23;;;-0.90;99.90;;;;;;6272926;23;20424;-59
2023/02/06 03:50:10;;;;;;;9.07;5.83;;;-0.90;99.90;;;;;;6272441;23;20403;-55
2023/02/06 03:52:41;;;;;;;6.67;4.93;;;-0.90;99.90;;;;;;6272213;23;20423;-57
2023/02/06 03:55:13;;;;;;;4.40;3.90;;;-0.90;99.90;;;;;;6272414;23;20391;-54
2023/02/06 03:57:43;;;;;;;8.07;4.70;;;-0.90;99.90;;;;;;6272816;23;20410;-57
2023/02/06 04:00:11;;;;;;;9.37;4.00;;;-0.90;99.90;;;;;;6273071;23;20422;-56
2023/02/06 04:02:39;;;;;;;11.73;6.30;;;-0.90;99.90;;;;;;6272463;23;20419;-55
2023/02/06 04:05:07;;;;;;;7.03;5.20;;;-0.80;99.90;;;;;;6273125;23;20367;-59
2023/02/06 04:07:36;;;;;;;7.50;4.77;;;-0.80;99.90;;;;;;6272593;23;20880;-55
2023/02/06 04:10:03;;;;;;;5.03;3.50;;;-0.70;99.90;;;;;;6272685;23;20409;-59
2023/02/06 04:12:31;;;;;;;5.50;3.33;;;-0.70;99.90;;;;;;6272508;23;20411;-60
2023/02/06 04:14:58;;;;;;;4.93;3.50;;;-0.70;99.90;;;;;;6272097;23;20435;-59
2023/02/06 04:17:25;;;;;;;6.73;3.83;;;-0.70;99.90;;;;;;6271980;23;20403;-55
2023/02/06 04:19:52;;;;;;;6.53;3.70;;;-0.60;99.90;;;;;;6272030;23;20430;-58
2023/02/06 04:22:19;;;;;;;5.70;3.00;;;-0.60;99.90;;;;;;6271732;23;20406;-60
2023/02/06 04:24:47;;;;;;;5.30;2.47;;;-0.50;99.90;;;;;;6272249;22;20403;-55
2023/02/06 04:27:15;;;;;;;3.50;3.20;;;-0.50;99.90;;;;;;6272305;23;20462;-55
2023/02/06 04:29:49;;;;;;;5.13;3.37;;;-0.50;99.90;;;;;;6272401;23;20410;-55
2023/02/06 04:32:16;;;;;;;3.33;3.00;;;-0.50;99.90;;;;;;6272500;23;20391;-58
2023/02/06 04:34:43;;;;;;;4.17;3.00;;;-0.50;99.90;;;;;;6272721;23;20406;-57
2023/02/06 04:37:13;;;;;;;3.77;2.27;;;-0.40;99.90;;;;;;6271852;23;20422;-53
2023/02/06 04:39:39;;;;;;;12.70;3.47;;;-0.40;99.90;;;;;;6272239;23;20399;-58
2023/02/06 04:42:08;;;;;;;5.37;3.77;;;-0.50;99.90;;;;;;6272098;23;20422;-56
2023/02/06 04:44:37;;;;;;;4.87;3.40;;;-0.40;99.90;;;;;;6272560;23;20430;-55
2023/02/06 04:47:06;;;;;;;4.67;3.60;;;-0.50;99.90;;;;;;6273854;23;20430;-56
2023/02/06 04:49:33;;;;;;;4.10;2.63;;;-0.50;99.90;;;;;;6273542;23;20371;-57
2023/02/06 04:52:00;;;;;;;6.20;3.53;;;-0.50;99.90;;;;;;6273740;23;20395;-53
2023/02/06 04:54:29;;;;;;;4.07;2.90;;;-0.50;99.90;;;;;;6274115;23;20429;-59
2023/02/06 04:56:56;;;;;;;4.07;3.27;;;-0.40;99.90;;;;;;6273978;23;20399;-58
2023/02/06 04:59:23;;;;;;;5.60;2.70;;;-0.50;99.90;;;;;;6273487;23;20423;-58
2023/02/06 05:01:50;;;;;;;9.10;6.27;;;-0.40;99.90;;;;;;6273656;23;20407;-59
2023/02/06 05:04:18;;;;;;;4.67;3.23;;;-0.40;99.90;;;;;;6273492;23;20437;-58
2023/02/06 05:06:48;;;;;;;4.90;3.57;;;-0.40;99.90;;;;;;6273642;23;20801;-58
2023/02/06 05:09:15;;;;;;;5.53;3.23;;;-0.40;99.90;;;;;;6273526;23;20398;-59
2023/02/06 05:11:45;;;;;;;8.30;4.60;;;-0.50;99.90;;;;;;6273971;23;20384;-55
2023/02/06 05:14:12;;;;;;;4.80;2.90;;;-0.50;99.90;;;;;;6273374;23;20398;-59
2023/02/06 05:16:38;;;;;;;5.57;2.70;;;-0.50;99.90;;;;;;6273610;23;20395;-56
2023/02/06 05:19:05;;;;;;;3.30;2.33;;;-0.40;99.90;;;;;;6273161;23;20395;-58
2023/02/06 05:21:33;;;;;;;4.47;3.30;;;-0.40;99.90;;;;;;6273113;23;20419;-59
2023/02/06 05:24:01;;;;;;;5.63;3.63;;;-0.50;99.90;;;;;;6273354;23;20383;-57
2023/02/06 05:26:28;;;;;;;8.50;4.03;;;-0.50;99.90;;;;;;6273591;23;20404;-59
2023/02/06 05:28:56;;;;;;;5.67;3.30;;;-0.50;99.90;;;;;;6272873;23;20383;-58
2023/02/06 05:31:30;;;;;;;8.90;4.23;;;-0.40;99.90;;;;;;6273336;23;20403;-58
2023/02/06 05:33:58;;;;;;;5.67;3.57;;;-0.40;99.90;;;;;;6273787;23;20407;-59
2023/02/06 05:36:25;;;;;;;8.43;3.67;;;-0.40;99.90;;;;;;6273800;23;20418;-55
2023/02/06 05:38:53;;;;;;;2.90;2.63;;;-0.40;99.90;;;;;;6274229;23;20411;-59
2023/02/06 05:41:20;;;;;;;7.53;3.90;;;-0.40;99.90;;;;;;6274167;23;20390;-58
2023/02/06 05:43:47;;;;;;;20.93;12.07;;;-0.40;99.90;;;;;;6273299;23;20423;-56
2023/02/06 05:46:14;;;;;;;8.60;4.33;;;-0.40;99.90;;;;;;6273978;23;20406;-58
2023/02/06 05:48:41;;;;;;;6.60;4.20;;;-0.40;99.90;;;;;;6273174;23;20502;-56
2023/02/06 05:51:08;;;;;;;5.33;3.03;;;-0.40;99.90;;;;;;6273131;23;20383;-57
2023/02/06 05:53:35;;;;;;;3.73;2.73;;;-0.30;99.90;;;;;;6272729;23;20434;-55
2023/02/06 05:56:04;;;;;;;19.27;6.00;;;-0.30;99.90;;;;;;6273202;23;20390;-61
2023/02/06 05:58:33;;;;;;;4.93;3.70;;;-0.20;99.90;;;;;;6273090;23;20395;-52
2023/02/06 06:01:00;;;;;;;7.90;3.33;;;-0.20;99.90;;;;;;6272903;23;20410;-53
2023/02/06 06:03:27;;;;;;;3.70;2.93;;;-0.20;99.90;;;;;;6273222;23;20855;-56
2023/02/06 06:05:54;;;;;;;3.60;3.00;;;-0.20;99.90;;;;;;6273110;23;20427;-60
2023/02/06 06:08:21;;;;;;;4.10;3.00;;;-0.20;99.90;;;;;;6273003;23;20470;-58
2023/02/06 06:10:50;;;;;;;7.70;3.50;;;-0.20;99.90;;;;;;6272485;23;20412;-59
2023/02/06 06:13:18;;;;;;;6.50;3.50;;;-0.10;99.90;;;;;;6273000;23;20390;-55
2023/02/06 06:15:49;;;;;;;6.07;3.80;;;-0.10;99.90;;;;;;6272904;23;20407;-59
2023/02/06 06:18:16;;;;;;;9.27;4.70;;;-0.10;99.90;;;;;;6273314;23;20410;-57
2023/02/06 06:20:43;;;;;;;4.43;3.20;;;-0.10;99.90;;;;;;6272990;23;20399;-55
2023/02/06 06:23:09;;;;;;;5.27;4.00;;;-0.10;99.90;;;;;;6272636;23;20454;-58
2023/02/06 06:25:37;;;;;;;3.47;3.00;;;-0.10;99.90;;;;;;6272863;22;20403;-58
2023/02/06 06:28:04;;;;;;;6.50;3.93;;;-0.10;99.90;;;;;;6273111;23;20438;-57
2023/02/06 06:30:36;;;;;;;9.20;3.47;;;-0.10;99.90;;;;;;6272733;23;20395;-58
2023/02/06 06:33:03;;;;;;;6.27;5.10;;;-0.10;99.90;;;;;;6272952;23;20475;-53
2023/02/06 06:35:30;;;;;;;6.57;4.27;;;-0.10;99.90;;;;;;6273345;23;20403;-59
2023/02/06 06:37:56;;;;;;;4.70;3.33;;;-0.10;99.90;;;;;;6273406;23;20386;-55
2023/02/06 06:40:23;;;;;;;6.20;3.93;;;-0.10;99.90;;;;;;6272834;23;20399;-61
2023/02/06 06:42:50;;;;;;;6.93;4.17;;;-0.10;99.90;;;;;;6272917;23;20407;-54
2023/02/06 06:45:18;;;;;;;5.03;2.83;;;-0.10;99.90;;;;;;6272595;23;20454;-56
2023/02/06 06:47:47;;;;;;;8.70;4.00;;;-0.10;99.90;;;;;;6272706;23;20470;-57
2023/02/06 06:50:13;;;;;;;7.37;3.97;;;-0.10;99.90;;;;;;6273087;23;20434;-58
2023/02/06 06:52:40;;;;;;;6.33;4.00;;;-0.10;99.90;;;;;;6272468;23;20395;-57
2023/02/06 06:55:08;;;;;;;6.27;3.90;;;-0.10;99.90;;;;;;6272480;23;20430;-57
2023/02/06 06:57:34;;;;;;;12.83;4.07;;;-0.10;99.90;;;;;;6272691;23;20379;-56
2023/02/06 07:00:01;;;;;;;6.50;4.37;;;-0.10;99.90;;;;;;6272842;23;20421;-56
2023/02/06 07:02:28;;;;;;;5.17;4.17;;;-0.10;99.90;;;;;;6272336;23;20380;-59
2023/02/06 07:05:04;;;;;;;13.10;4.30;;;-0.10;99.90;;;;;;6272681;23;20383;-61
2023/02/06 07:07:31;;;;;;;10.63;4.00;;;0.00;99.90;;;;;;6272301;23;20490;-54
2023/02/06 07:09:58;;;;;;;6.93;5.40;;;0.00;99.90;;;;;;6272304;23;20382;-57
2023/02/06 07:12:25;;;;;;;5.73;3.03;;;0.00;99.90;;;;;;6272254;23;20451;-58
2023/02/06 07:14:52;;;;;;;7.27;4.03;;;-0.10;99.90;;;;;;6272201;23;20387;-59
2023/02/06 07:17:19;;;;;;;6.70;4.50;;;0.00;99.90;;;;;;6272093;23;20387;-57
2023/02/06 07:19:47;;;;;;;6.40;4.30;;;0.00;99.90;;;;;;6272392;23;20395;-60
2023/02/06 07:22:15;;;;;;;8.03;6.50;;;0.00;99.90;;;;;;6272232;23;20403;-55
2023/02/06 07:24:42;;;;;;;9.47;5.13;;;0.00;99.90;;;;;;6272654;23;20408;-53
2023/02/06 07:27:09;;;;;;;6.73;4.87;;;0.10;99.90;;;;;;6272198;23;20454;-52
2023/02/06 07:29:36;;;;;;;5.97;4.33;;;0.10;99.90;;;;;;6271735;23;20421;-57
2023/02/06 07:32:04;;;;;;;4.63;3.87;;;0.10;99.90;;;;;;6271577;23;20418;-54
2023/02/06 07:34:34;;;;;;;6.93;4.70;;;0.10;99.90;;;;;;6272297;23;20403;-57
2023/02/06 07:37:01;;;;;;;11.27;5.07;;;0.10;99.90;;;;;;6271626;23;20425;-61
2023/02/06 07:39:31;;;;;;;10.93;6.87;;;0.10;99.90;;;;;;6272152;23;20399;-59
2023/02/06 07:41:58;;;;;;;11.07;5.20;;;0.20;99.90;;;;;;6272082;23;20375;-56
2023/02/06 07:44:24;;;;;;;7.93;5.40;;;0.20;99.90;;;;;;6271262;23;20513;-56
2023/02/06 07:46:51;;;;;;;5.77;4.20;;;0.20;99.90;;;;;;6271934;23;20423;-57
2023/02/06 07:49:18;;;;;;;8.37;4.77;;;0.20;99.90;;;;;;6272072;23;20439;-56
2023/02/06 07:51:48;;;;;;;8.30;5.23;;;0.30;99.90;;;;;;6271826;23;20434;-57
2023/02/06 07:54:18;;;;;;;10.23;5.83;;;0.30;99.90;;;;;;6271793;23;20406;-59
2023/02/06 07:56:47;;;;;;;10.60;5.83;;;0.40;99.90;;;;;;6271901;23;20407;-53
2023/02/06 07:59:17;;;;;;;7.80;4.77;;;0.40;99.90;;;;;;6271800;23;20395;-53
2023/02/06 08:01:44;;;;;;;12.20;6.17;;;0.50;99.90;;;;;;6272424;23;20406;-57
2023/02/06 08:04:11;;;;;;;11.90;6.03;;;0.50;99.90;;;;;;6273010;23;20376;-56
2023/02/06 08:06:40;;;;;;;8.70;5.50;;;0.50;99.90;;;;;;6271974;23;20414;-58
2023/02/06 08:09:07;;;;;;;7.37;4.53;;;0.60;99.90;;;;;;6271855;23;20442;-53
2023/02/06 08:11:34;;;;;;;11.50;5.63;;;0.60;99.90;;;;;;6271695;23;20403;-54
2023/02/06 08:14:03;;;;;;;7.53;5.17;;;0.60;99.90;;;;;;6271344;23;20423;-59
2023/02/06 08:16:30;;;;;;;13.90;5.97;;;0.60;99.90;;;;;;6271806;23;20399;-54
2023/02/06 08:18:57;;;;;;;6.70;6.00;;;0.60;99.90;;;;;;6271901;23;20430;-55
2023/02/06 08:21:25;;;;;;;9.40;7.43;;;0.70;99.90;;;;;;6273306;23;20414;-54
2023/02/06 08:23:54;;;;;;;6.93;5.60;;;0.80;99.90;;;;;;6274009;23;20391;-55
2023/02/06 08:26:21;;;;;;;13.67;8.37;;;0.90;99.90;;;;;;6274123;23;20459;-58
2023/02/06 08:28:50;;;;;;;6.20;5.00;;;0.90;99.90;;;;;;6273605;23;20498;-53
2023/02/06 08:31:23;;;;;;;9.43;5.57;;;1.00;99.90;;;;;;6274008;23;20414;-51
2023/02/06 08:33:50;;;;;;;9.10;6.10;;;1.00;99.90;;;;;;6273714;23;20390;-56
2023/02/06 08:36:19;;;;;;;10.33;5.90;;;1.00;99.90;;;;;;6273423;23;20419;-53
2023/02/06 08:38:46;;;;;;;7.70;6.90;;;1.10;99.90;;;;;;6273432;22;20406;-56
2023/02/06 08:41:18;;;;;;;8.73;6.40;;;1.10;99.90;;;;;;6273301;23;20433;-58
2023/02/06 08:43:45;;;;;;;11.40;5.97;;;1.20;99.90;;;;;;6273178;23;20398;-56
2023/02/06 08:46:12;;;;;;;10.20;6.27;;;1.20;99.90;;;;;;6272869;23;20403;-56
2023/02/06 08:48:40;;;;;;;7.83;6.00;;;1.20;99.90;;;;;;6272973;23;20419;-55
2023/02/06 08:51:09;;;;;;;16.93;6.40;;;1.20;99.90;;;;;;6272731;23;20402;-52
2023/02/06 08:53:36;;;;;;;8.37;5.20;;;1.20;99.90;;;;;;6273138;23;20364;-53
2023/02/06 08:56:05;;;;;;;9.77;6.30;;;1.20;99.90;;;;;;6272853;23;20437;-53
2023/02/06 08:58:32;;;;;;;9.07;6.17;;;1.10;99.90;;;;;;6272733;23;20375;-58
2023/02/06 09:01:05;;;;;;;11.13;6.37;;;1.20;99.90;;;;;;6272320;23;20410;-55
2023/02/06 09:03:31;;;;;;;7.90;5.53;;;1.20;99.90;;;;;;6272926;23;20394;-58
2023/02/06 09:06:02;;;;;;;10.10;7.20;;;1.30;99.90;;;;;;6272369;23;20379;-54
2023/02/06 09:08:30;;;;;;;10.13;6.70;;;1.30;99.90;;;;;;6272605;23;20434;-56
2023/02/06 09:11:04;;;;;;;32.80;9.40;;;1.50;99.90;;;;;;6272995;23;20399;-58
2023/02/06 09:13:31;;;;;;;15.57;6.80;;;1.60;99.90;;;;;;6273434;23;20380;-54
2023/02/06 09:15:58;;;;;;;15.63;7.93;;;1.60;99.90;;;;;;6273143;23;20414;-57
2023/02/06 09:18:26;;;;;;;11.07;6.83;;;1.70;99.90;;;;;;6272521;23;20399;-51
2023/02/06 09:21:05;;;;;;;12.63;8.03;;;1.80;99.90;;;;;;6272793;23;20387;-55
2023/02/06 09:23:32;;;;;;;13.30;7.10;;;1.80;99.90;;;;;;6273053;23;20395;-57
2023/02/06 09:25:59;;;;;;;20.03;7.40;;;1.80;99.90;;;;;;6272403;23;20410;-56
2023/02/06 09:28:26;;;;;;;16.13;8.77;;;1.90;99.90;;;;;;6272893;23;20435;-58
2023/02/06 09:30:53;;;;;;;17.30;9.33;;;1.90;99.90;;;;;;6272863;23;20379;-58
2023/02/06 09:33:20;;;;;;;18.60;9.83;;;1.90;99.90;;;;;;6272341;23;20393;-60
2023/02/06 09:35:47;;;;;;;17.33;9.83;;;1.90;99.90;;;;;;6272330;23;20394;-57
2023/02/06 09:38:15;;;;;;;22.07;9.30;;;1.90;99.90;;;;;;6272138;23;20415;-56
2023/02/06 09:40:42;;;;;;;11.33;7.80;;;1.90;99.90;;;;;;6272034;23;20414;-56
2023/02/06 09:43:12;;;;;;;20.00;8.40;;;1.90;99.90;;;;;;6272432;23;20430;-58
2023/02/06 09:45:40;;;;;;;24.00;9.33;;;1.90;99.90;;;;;;6273080;23;20402;-59
2023/02/06 09:48:17;;;;;;;17.83;7.40;;;1.80;99.90;;;;;;6271587;23;20442;-57
2023/02/06 09:50:54;;;;;;;14.50;8.17;;;1.80;99.90;;;;;;6272543;23;20379;-58
2023/02/06 09:53:29;;;;;;;16.13;8.37;;;1.80;99.90;;;;;;6272526;23;20450;-58
2023/02/06 09:56:07;;;;;;;17.20;8.50;;;1.80;99.90;;;;;;6272435;23;20384;-58
2023/02/06 09:58:42;;;;;;;21.63;8.57;;;1.80;99.90;;;;;;6272085;23;20383;-57
2023/02/06 10:01:19;;;;;;;9.97;7.80;;;1.80;99.90;;;;;;6272629;23;20383;-58
2023/02/06 10:04:04;;;;;;;15.90;7.10;;;1.80;99.90;;;;;;6272257;23;20717;-55
2023/02/06 10:06:47;;;;;;;17.77;6.93;;;1.80;99.90;;;;;;6272527;23;20483;-60
2023/02/06 10:09:20;;;;;;;20.53;9.43;;;1.80;99.90;;;;;;6272579;23;20435;-57
2023/02/06 10:11:53;;;;;;;20.10;9.43;;;1.90;99.90;;;;;;6273182;23;20418;-58
2023/02/06 10:14:24;;;;;;;18.93;8.37;;;1.90;99.90;;;;;;6272669;23;20384;-55
2023/02/06 10:16:59;;;;;;;22.10;7.80;;;1.80;99.90;;;;;;6272049;23;20387;-59
2023/02/06 10:19:42;;;;;;;14.13;8.70;;;1.80;99.90;;;;;;6272236;23;20434;-58
2023/02/06 10:22:14;;;;;;;20.80;6.87;;;1.80;99.90;;;;;;6272683;23;20435;-55
2023/02/06 10:24:48;;;;;;;29.27;10.67;;;1.80;99.90;;;;;;6272650;23;20440;-50
2023/02/06 10:27:15;;;;;;;16.10;9.43;;;1.80;99.90;;;;;;6272388;23;20427;-53
2023/02/06 10:29:45;;;;;;;12.90;5.90;;;1.70;99.90;;;;;;6272302;23;20407;-50
2023/02/06 10:32:34;;;;;;;16.10;8.80;;;1.80;99.90;;;;;;6272750;23;20418;-53
2023/02/06 10:35:23;;;;;;;11.87;6.40;;;1.70;99.90;;;;;;6273160;23;20474;-54
2023/02/06 10:38:18;;;;;;;15.33;5.50;;;1.80;99.90;;;;;;6253375;23;20430;-56
2023/02/06 10:40:53;;;;;;;16.67;8.10;;;1.80;99.90;;;;;;6273009;23;20384;-57
2023/02/06 10:43:31;;;;;;;12.13;6.50;;;1.80;99.90;;;;;;6272152;23;20434;-57
2023/02/06 10:46:18;;;;;;;13.70;7.80;;;1.80;99.90;;;;;;6271917;23;20479;-56
2023/02/06 10:48:52;;;;;;;17.03;9.70;;;1.80;99.90;;;;;;6272266;23;20443;-58
2023/02/06 10:51:33;;;;;;;17.90;7.90;;;1.90;99.90;;;;;;6272472;23;20458;-58
2023/02/06 10:54:02;;;;;;;18.70;7.20;;;2.00;99.90;;;;;;6272776;23;20415;-55
2023/02/06 10:56:35;;;;;;;8.50;5.40;;;2.00;99.90;;;;;;6272151;23;20426;-59
2023/02/06 10:59:07;;;;;;;14.77;7.60;;;2.00;99.90;;;;;;6271731;23;20380;-55
2023/02/06 11:01:37;;;;;;;11.37;7.20;;;1.90;99.90;;;;;;6271696;23;20434;-58
2023/02/06 11:04:10;;;;;;;14.33;6.97;;;1.90;99.90;;;;;;6271834;23;20535;-54
2023/02/06 11:06:40;;;;;;;15.97;7.10;;;1.90;99.90;;;;;;6271315;23;20407;-57
2023/02/06 11:09:07;;;;;;;24.77;8.93;;;1.90;99.90;;;;;;6271942;23;20463;-58
2023/02/06 11:11:39;;;;;;;17.20;7.90;;;2.00;99.90;;;;;;6271510;23;20403;-58
2023/02/06 11:14:15;;;;;;;17.80;7.90;;;2.00;99.90;;;;;;6271782;23;20414;-57
2023/02/06 11:16:43;;;;;;;21.43;10.93;;;2.00;99.90;;;;;;6271678;23;20391;-59
2023/02/06 11:19:17;;;;;;;17.57;9.30;;;2.10;99.90;;;;;;6271945;23;20391;-55
2023/02/06 11:21:54;;;;;;;16.27;8.80;;;2.10;99.90;;;;;;6271771;23;20463;-57
2023/02/06 11:24:23;;;;;;;15.10;7.37;;;2.10;99.90;;;;;;6271588;23;20367;-56
2023/02/06 11:26:55;;;;;;;13.07;8.63;;;2.10;99.90;;;;;;6271966;23;20691;-55
2023/02/06 11:29:25;;;;;;;19.13;9.87;;;2.20;99.90;;;;;;6271630;23;20449;-60
2023/02/06 11:31:55;;;;;;;15.30;9.87;;;2.10;99.90;;;;;;6271152;23;20475;-57
2023/02/06 11:34:28;;;;;;;19.43;9.03;;;2.20;99.90;;;;;;6271432;23;20376;-58
2023/02/06 11:36:57;;;;;;;21.53;8.80;;;2.30;99.90;;;;;;6271252;23;20375;-56
2023/02/06 11:39:29;;;;;;;22.30;10.90;;;2.30;99.90;;;;;;6270978;23;20395;-55
2023/02/06 11:42:02;;;;;;;14.40;8.63;;;2.40;99.90;;;;;;6271103;23;20407;-58
2023/02/06 11:44:39;;;;;;;17.63;9.80;;;2.40;99.90;;;;;;6270767;23;20407;-57
2023/02/06 11:47:29;;;;;;;23.17;10.67;;;2.40;99.90;;;;;;6270879;23;20393;-59
2023/02/06 11:49:56;;;;;;;25.90;11.20;;;2.40;99.90;;;;;;6252374;23;20740;-54
2023/02/06 11:52:29;;;;;;;15.50;9.20;;;2.40;99.90;;;;;;6271474;23;20391;-58
2023/02/06 11:55:01;;;;;;;14.20;8.60;;;2.40;99.90;;;;;;6270812;23;20411;-56
2023/02/06 11:57:32;;;;;;;22.90;10.70;;;2.30;99.90;;;;;;6271462;23;20379;-57
2023/02/06 12:00:01;;;;;;;14.50;9.23;;;2.30;99.90;;;;;;6270900;23;20410;-59
2023/02/06 12:02:30;;;;;;;20.63;9.97;;;2.40;99.90;;;;;;6271311;23;20398;-56
2023/02/06 12:05:03;;;;;;;15.37;9.20;;;2.40;99.90;;;;;;6271588;23;20399;-57
2023/02/06 12:07:34;;;;;;;14.63;7.40;;;2.40;99.90;;;;;;6271202;23;20387;-56
2023/02/06 12:10:05;;;;;;;11.73;6.73;;;2.40;99.90;;;;;;6271371;23;20465;-55
2023/02/06 12:12:36;;;;;;;17.83;8.07;;;2.30;99.90;;;;;;6271415;23;20383;-58
2023/02/06 12:15:07;;;;;;;10.53;6.53;;;2.30;99.90;;;;;;6271283;23;20383;-55
2023/02/06 12:17:37;;;;;;;10.60;6.27;;;2.30;99.90;;;;;;6271056;23;20803;-58
2023/02/06 12:20:08;;;;;;;14.13;7.07;;;2.30;99.90;;;;;;6271446;23;20403;-55
2023/02/06 12:22:42;;;;;;;10.63;7.33;;;2.30;99.90;;;;;;6271293;23;20383;-56
2023/02/06 12:25:27;;;;;;;16.40;7.33;;;2.30;99.90;;;;;;6271293;23;20393;-55
2023/02/06 12:27:59;;;;;;;16.90;7.20;;;2.30;99.90;;;;;;6270978;23;20392;-58
2023/02/06 12:30:32;;;;;;;14.70;7.40;;;2.20;99.90;;;;;;6271534;23;20415;-57
2023/02/06 12:33:06;;;;;;;14.47;7.93;;;2.20;99.90;;;;;;6270828;23;20375;-56
2023/02/06 12:35:39;;;;;;;14.10;6.63;;;2.20;99.90;;;;;;6271533;23;20398;-53
2023/02/06 12:38:17;;;;;;;10.20;6.23;;;2.20;99.90;;;;;;6271063;23;20376;-57
2023/02/06 12:40:50;;;;;;;14.80;8.43;;;2.20;99.90;;;;;;6270984;23;20379;-57
2023/02/06 12:43:19;;;;;;;11.47;6.20;;;2.20;99.90;;;;;;6271139;23;20410;-56
2023/02/06 12:45:54;;;;;;;14.33;8.13;;;2.20;99.90;;;;;;6270985;23;20407;-59
2023/02/06 12:48:25;;;;;;;11.33;7.07;;;2.20;99.90;;;;;;6270983;23;20367;-60
2023/02/06 12:51:16;;;;;;;20.60;8.27;;;2.20;99.90;;;;;;6271412;23;20414;-55
2023/02/06 12:53:47;;;;;;;15.57;7.97;;;2.20;99.90;;;;;;6270674;23;20431;-59
2023/02/06 12:56:24;;;;;;;12.43;7.77;;;2.20;99.90;;;;;;6271249;23;20414;-56
2023/02/06 12:58:58;;;;;;;9.70;6.77;;;2.30;99.90;;;;;;6269804;23;20415;-59
2023/02/06 13:01:39;;;;;;;16.63;9.00;;;2.30;99.90;;;;;;6270802;23;20388;-57
2023/02/06 13:04:11;;;;;;;17.93;8.80;;;2.40;99.90;;;;;;6270941;23;20422;-58